createdAt,value
2023-03-06T00:00:20.864Z,86.90
2023-03-06T00:01:22.098Z,87.20
2023-03-06T00:02:23.376Z,87.08
2023-03-06T00:03:25.044Z,86.99
2023-03-06T00:04:26.339Z,87.06
2023-03-06T00:05:27.797Z,86.65
2023-03-06T00:06:29.033Z,86.91
2023-03-06T00:07:30.216Z,86.86
2023-03-06T00:08:31.436Z,86.71
2023-03-06T00:09:33.915Z,87.06
2023-03-06T00:10:35.130Z,87.08
2023-03-06T00:11:36.443Z,87.08
2023-03-06T00:12:37.650Z,86.97
2023-03-06T00:13:38.843Z,86.82
2023-03-06T00:14:40.155Z,87.23
2023-03-06T00:15:41.909Z,87.10
2023-03-06T00:16:43.100Z,87.13
2023-03-06T00:17:44.405Z,87.02
2023-03-06T00:18:45.646Z,87.39
2023-03-06T00:19:46.912Z,87.32
2023-03-06T00:20:48.213Z,87.19
2023-03-06T00:21:49.577Z,87.42
2023-03-06T00:22:51.361Z,87.64
2023-03-06T00:23:52.602Z,87.67
2023-03-06T00:24:53.934Z,87.50
2023-03-06T00:25:55.235Z,87.47
2023-03-06T00:26:56.508Z,87.83
2023-03-06T00:27:57.768Z,87.88
2023-03-06T00:28:59.429Z,87.77
2023-03-06T00:30:01.060Z,87.97
2023-03-06T00:31:02.557Z,87.86
2023-03-06T00:32:03.878Z,87.82
2023-03-06T00:33:05.176Z,88.19
2023-03-06T00:34:06.424Z,88.55
2023-03-06T00:35:07.878Z,87.85
2023-03-06T00:36:09.290Z,88.20
2023-03-06T00:37:10.589Z,88.21
2023-03-06T00:38:12.174Z,88.43
2023-03-06T00:39:13.488Z,88.20
2023-03-06T00:40:16.455Z,88.07
2023-03-06T00:41:17.756Z,88.16
2023-03-06T00:42:19.395Z,88.16
2023-03-06T00:43:20.641Z,87.90
2023-03-06T00:44:21.869Z,88.03
2023-03-06T00:45:23.223Z,87.83
2023-03-06T00:46:24.583Z,88.01
2023-03-06T00:47:25.849Z,87.76
2023-03-06T00:48:27.080Z,87.98
2023-03-06T00:49:28.299Z,87.48
2023-03-06T00:50:29.520Z,87.87
2023-03-06T00:51:30.792Z,88.11
2023-03-06T00:52:32.194Z,88.01
2023-03-06T00:53:33.422Z,88.16
2023-03-06T00:54:35.983Z,88.45
2023-03-06T00:55:37.261Z,88.31
2023-03-06T00:56:38.493Z,88.44
2023-03-06T00:57:40.146Z,88.36
2023-03-06T00:58:41.397Z,88.51
2023-03-06T00:59:42.728Z,88.46
2023-03-06T01:00:44.590Z,88.34
2023-03-06T01:01:46.019Z,88.07
2023-03-06T01:02:48.296Z,88.25
2023-03-06T01:03:49.533Z,87.96
2023-03-06T01:04:50.773Z,88.02
2023-03-06T01:05:52.007Z,87.48
2023-03-06T01:06:53.338Z,87.45
2023-03-06T01:07:54.615Z,86.90
2023-03-06T01:08:55.831Z,86.98
2023-03-06T01:10:01.941Z,86.79
2023-03-06T01:11:03.293Z,86.67
2023-03-06T01:12:05.096Z,86.73
2023-03-06T01:13:06.592Z,86.72
2023-03-06T01:14:07.836Z,86.95
2023-03-06T01:15:09.392Z,86.85
2023-03-06T01:16:14.534Z,86.60
2023-03-06T01:17:15.790Z,86.41
2023-03-06T01:18:17.750Z,86.27
2023-03-06T01:19:19.256Z,86.34
2023-03-06T01:20:20.469Z,86.40
2023-03-06T01:21:21.663Z,86.47
2023-03-06T01:22:22.885Z,86.88
2023-03-06T01:23:24.102Z,86.34
2023-03-06T01:24:25.366Z,86.48
2023-03-06T01:25:27.055Z,86.44
2023-03-06T01:26:28.365Z,86.59
2023-03-06T01:27:29.598Z,86.39
2023-03-06T01:28:30.893Z,86.37
2023-03-06T01:29:32.173Z,86.53
2023-03-06T01:30:33.550Z,86.35
2023-03-06T01:31:35.686Z,86.51
2023-03-06T01:32:37.310Z,86.63
2023-03-06T01:33:38.792Z,86.81
2023-03-06T01:34:40.054Z,86.83
2023-03-06T01:35:41.309Z,86.83
2023-03-06T01:36:42.593Z,86.71
2023-03-06T01:37:44.448Z,86.90
2023-03-06T01:38:45.698Z,87.03
2023-03-06T01:39:49.099Z,87.34
2023-03-06T01:40:50.354Z,87.26
2023-03-06T01:41:51.633Z,87.27
2023-03-06T01:42:52.916Z,87.16
2023-03-06T01:43:54.241Z,87.38
2023-03-06T01:45:08.792Z,87.14
2023-03-06T01:46:31.047Z,87.43
2023-03-06T01:47:32.609Z,87.30
2023-03-06T01:48:33.952Z,87.51
2023-03-06T01:49:37.182Z,87.67
2023-03-06T01:50:38.512Z,87.86
2023-03-06T01:51:42.544Z,87.98
2023-03-06T01:52:46.908Z,87.83
2023-03-06T01:53:49.455Z,88.19
2023-03-06T01:54:54.311Z,88.09
2023-03-06T01:55:57.264Z,87.97
2023-03-06T01:57:24.770Z,87.96
2023-03-06T01:58:26.015Z,87.90
2023-03-06T01:59:28.431Z,88.17
2023-03-06T02:00:30.571Z,87.88
2023-03-06T02:01:32.336Z,88.22
2023-03-06T02:02:33.727Z,87.77
2023-03-06T02:03:36.132Z,87.79
2023-03-06T02:04:39.320Z,88.06
2023-03-06T02:05:41.313Z,87.81
2023-03-06T02:06:43.526Z,87.87
2023-03-06T02:07:45.762Z,87.94
2023-03-06T02:08:49.542Z,88.20
2023-03-06T02:09:50.836Z,88.04
2023-03-06T02:10:58.043Z,88.30
2023-03-06T02:12:00.368Z,88.21
2023-03-06T02:13:01.770Z,88.50
2023-03-06T02:14:03.245Z,88.26
2023-03-06T02:15:04.834Z,88.47
2023-03-06T02:16:07.112Z,88.37
2023-03-06T02:17:10.388Z,88.77
2023-03-06T02:18:13.399Z,88.20
2023-03-06T02:19:19.077Z,88.43
2023-03-06T02:20:34.068Z,88.25
2023-03-06T02:21:36.416Z,88.04
2023-03-06T02:22:44.267Z,87.89
2023-03-06T02:23:51.427Z,87.90
2023-03-06T02:24:52.605Z,87.88
2023-03-06T02:25:54.309Z,87.72
2023-03-06T02:26:56.457Z,87.38
2023-03-06T02:27:57.763Z,87.49
2023-03-06T02:28:59.057Z,87.61
2023-03-06T02:30:04.699Z,87.44
2023-03-06T02:31:06.607Z,87.41
2023-03-06T02:32:07.890Z,87.31
2023-03-06T02:33:16.501Z,87.58
2023-03-06T02:34:20.840Z,87.16
2023-03-06T02:35:23.743Z,87.38
2023-03-06T02:36:25.011Z,87.20
2023-03-06T02:37:27.364Z,87.06
2023-03-06T02:38:31.570Z,87.30
2023-03-06T02:39:33.862Z,86.99
2023-03-06T02:40:35.363Z,86.97
2023-03-06T02:41:36.681Z,87.13
2023-03-06T02:42:38.006Z,87.16
2023-03-06T02:43:40.637Z,87.17
2023-03-06T02:44:42.003Z,87.06
2023-03-06T02:45:45.059Z,87.02
2023-03-06T02:46:46.343Z,86.74
2023-03-06T02:47:47.674Z,87.01
2023-03-06T02:48:48.890Z,87.14
2023-03-06T02:49:50.140Z,87.30
2023-03-06T02:50:52.452Z,87.15
2023-03-06T02:51:53.697Z,86.85
2023-03-06T02:52:54.938Z,86.73
2023-03-06T02:53:56.214Z,86.54
2023-03-06T02:54:57.426Z,86.63
2023-03-06T02:55:58.692Z,86.40
2023-03-06T02:57:00.037Z,86.24
2023-03-06T02:58:01.790Z,85.80
2023-03-06T02:59:03.755Z,85.81
2023-03-06T03:00:05.367Z,85.30
2023-03-06T03:01:06.610Z,85.05
2023-03-06T03:02:08.636Z,85.00
2023-03-06T03:03:09.915Z,84.80
2023-03-06T03:04:11.143Z,84.99
2023-03-06T03:05:13.629Z,84.56
2023-03-06T03:06:17.392Z,84.16
2023-03-06T03:07:19.150Z,84.57
2023-03-06T03:08:21.317Z,83.96
2023-03-06T03:09:25.131Z,83.90
2023-03-06T03:10:26.681Z,84.40
2023-03-06T03:11:28.090Z,84.48
2023-03-06T03:12:29.790Z,84.37
2023-03-06T03:13:31.051Z,83.79
2023-03-06T03:14:32.717Z,83.27
2023-03-06T03:15:34.052Z,83.11
2023-03-06T03:16:36.276Z,83.07
2023-03-06T03:17:39.739Z,82.76
2023-03-06T03:18:41.484Z,83.20
2023-03-06T03:19:42.749Z,83.19
2023-03-06T03:20:44.001Z,82.92
2023-03-06T03:21:45.341Z,83.25
2023-03-06T03:22:50.411Z,83.17
2023-03-06T03:23:51.612Z,83.24
2023-03-06T03:24:52.872Z,83.19
2023-03-06T03:25:55.337Z,83.29
2023-03-06T03:26:56.679Z,83.24
2023-03-06T03:27:58.942Z,83.21
2023-03-06T03:29:00.902Z,83.06
2023-03-06T03:30:02.195Z,82.83
2023-03-06T03:31:04.482Z,82.86
2023-03-06T03:32:06.165Z,82.87
2023-03-06T03:33:07.960Z,83.00
2023-03-06T03:34:09.534Z,83.11
2023-03-06T03:35:13.412Z,82.38
2023-03-06T03:36:15.426Z,82.67
2023-03-06T03:37:20.199Z,82.60
2023-03-06T03:38:21.446Z,82.97
2023-03-06T03:39:22.700Z,83.13
2023-03-06T03:40:24.054Z,83.24
2023-03-06T03:41:25.900Z,82.84
2023-03-06T03:42:27.154Z,82.85
2023-03-06T03:43:28.944Z,83.14
2023-03-06T03:44:30.732Z,82.97
2023-03-06T03:45:32.488Z,83.02
2023-03-06T03:46:33.991Z,82.98
2023-03-06T03:47:36.667Z,83.07
2023-03-06T03:48:37.948Z,82.87
2023-03-06T03:49:40.158Z,82.49
2023-03-06T03:50:41.678Z,83.07
2023-03-06T03:51:43.051Z,83.05
2023-03-06T03:52:44.552Z,83.15
2023-03-06T03:53:47.109Z,83.17
2023-03-06T03:54:51.762Z,83.02
2023-03-06T03:55:53.048Z,83.57
2023-03-06T03:56:55.699Z,83.15
2023-03-06T03:58:04.411Z,83.56
2023-03-06T03:59:06.280Z,83.60
2023-03-06T04:00:14.163Z,83.63
2023-03-06T04:01:15.415Z,83.88
2023-03-06T04:02:16.911Z,84.19
2023-03-06T04:03:26.229Z,84.00
2023-03-06T04:04:27.518Z,83.96
2023-03-06T04:05:28.858Z,84.32
2023-03-06T04:06:30.493Z,84.43
2023-03-06T04:07:31.740Z,84.48
2023-03-06T04:08:32.984Z,84.22
2023-03-06T04:09:34.405Z,84.18
2023-03-06T04:10:35.625Z,84.17
2023-03-06T04:11:37.477Z,84.42
2023-03-06T04:12:38.984Z,84.38
2023-03-06T04:13:40.375Z,84.24
2023-03-06T04:14:41.919Z,84.75
2023-03-06T04:15:43.243Z,84.42
2023-03-06T04:16:45.513Z,84.93
2023-03-06T04:17:47.082Z,85.07
2023-03-06T04:18:51.774Z,85.23
2023-03-06T04:19:55.129Z,84.76
2023-03-06T04:20:57.239Z,85.19
2023-03-06T04:21:58.562Z,85.25
2023-03-06T04:23:00.320Z,84.98
2023-03-06T04:24:01.665Z,85.09
2023-03-06T04:25:02.985Z,85.09
2023-03-06T04:26:04.644Z,85.13
2023-03-06T04:27:05.907Z,85.30
2023-03-06T04:28:07.497Z,85.21
2023-03-06T04:29:08.937Z,85.43
2023-03-06T04:30:10.641Z,85.52
2023-03-06T04:31:12.618Z,85.58
2023-03-06T04:32:14.137Z,85.38
2023-03-06T04:33:15.453Z,85.74
2023-03-06T04:34:17.696Z,85.33
2023-03-06T04:35:20.131Z,85.41
2023-03-06T04:36:31.658Z,85.62
2023-03-06T04:37:36.936Z,85.30
2023-03-06T04:38:38.727Z,85.88
2023-03-06T04:39:40.147Z,85.50
2023-03-06T04:40:42.927Z,85.58
2023-03-06T04:41:45.148Z,85.91
2023-03-06T04:42:46.464Z,85.40
2023-03-06T04:43:47.777Z,86.06
2023-03-06T04:44:48.988Z,85.74
2023-03-06T04:45:50.342Z,86.04
2023-03-06T04:46:51.573Z,86.36
2023-03-06T04:47:52.851Z,85.82
2023-03-06T04:48:54.126Z,85.37
2023-03-06T04:49:55.390Z,85.50
2023-03-06T04:50:56.618Z,85.47
2023-03-06T04:51:57.928Z,85.59
2023-03-06T04:53:00.707Z,85.69
2023-03-06T04:54:02.387Z,85.60
2023-03-06T04:55:03.852Z,85.56
2023-03-06T04:56:05.760Z,85.58
2023-03-06T04:57:06.965Z,85.29
2023-03-06T04:58:08.210Z,85.09
2023-03-06T04:59:09.423Z,84.78
2023-03-06T05:00:15.664Z,85.15
2023-03-06T05:01:17.014Z,84.81
2023-03-06T05:02:18.388Z,84.92
2023-03-06T05:03:19.721Z,85.08
2023-03-06T05:04:21.025Z,85.12
2023-03-06T05:05:22.217Z,85.28
2023-03-06T05:06:23.461Z,84.92
2023-03-06T05:07:24.755Z,84.90
2023-03-06T05:08:25.948Z,84.69
2023-03-06T05:09:27.137Z,84.96
2023-03-06T05:10:28.378Z,84.68
2023-03-06T05:11:29.670Z,84.47
2023-03-06T05:12:30.941Z,84.89
2023-03-06T05:13:32.324Z,84.63
2023-03-06T05:14:33.573Z,84.74
2023-03-06T05:15:34.924Z,84.56
2023-03-06T05:16:36.233Z,84.46
2023-03-06T05:17:37.608Z,84.41
2023-03-06T05:18:38.856Z,84.67
2023-03-06T05:19:40.162Z,85.11
2023-03-06T05:20:41.495Z,84.94
2023-03-06T05:21:42.760Z,84.69
2023-03-06T05:22:44.193Z,84.98
2023-03-06T05:23:45.431Z,85.03
2023-03-06T05:24:46.870Z,85.08
2023-03-06T05:25:48.082Z,84.98
2023-03-06T05:26:49.265Z,84.93
2023-03-06T05:27:50.503Z,84.89
2023-03-06T05:28:51.856Z,84.97
2023-03-06T05:29:53.266Z,84.75
2023-03-06T05:30:54.461Z,84.78
2023-03-06T05:31:55.836Z,84.47
2023-03-06T05:32:57.197Z,84.49
2023-03-06T05:33:58.521Z,84.67
2023-03-06T05:34:59.854Z,85.13
2023-03-06T05:36:01.174Z,84.84
2023-03-06T05:37:02.422Z,84.97
2023-03-06T05:38:04.054Z,85.00
2023-03-06T05:39:05.384Z,84.86
2023-03-06T05:40:06.934Z,84.80
2023-03-06T05:41:10.711Z,85.08
2023-03-06T05:42:11.956Z,84.92
2023-03-06T05:43:13.204Z,84.79
2023-03-06T05:44:14.441Z,84.97
2023-03-06T05:45:15.736Z,85.10
2023-03-06T05:46:17.035Z,85.34
2023-03-06T05:47:18.357Z,84.91
2023-03-06T05:48:19.561Z,85.18
2023-03-06T05:49:20.804Z,84.71
2023-03-06T05:50:22.141Z,84.80
2023-03-06T05:51:23.784Z,84.91
2023-03-06T05:52:25.016Z,84.78
2023-03-06T05:53:26.341Z,84.94
2023-03-06T05:54:27.580Z,84.65
2023-03-06T05:55:28.927Z,84.49
2023-03-06T05:56:30.266Z,84.84
2023-03-06T05:57:31.619Z,84.50
2023-03-06T05:58:32.970Z,84.89
2023-03-06T05:59:34.353Z,85.06
2023-03-06T06:00:35.943Z,85.28
2023-03-06T06:01:37.352Z,85.18
2023-03-06T06:02:38.734Z,84.83
2023-03-06T06:03:40.273Z,84.82
2023-03-06T06:04:41.532Z,84.81
2023-03-06T06:05:42.773Z,84.73
2023-03-06T06:06:44.012Z,84.94
2023-03-06T06:07:45.261Z,84.94
2023-03-06T06:08:46.536Z,84.70
2023-03-06T06:09:47.748Z,85.19
2023-03-06T06:10:50.943Z,84.58
2023-03-06T06:11:54.295Z,84.40
2023-03-06T06:12:55.544Z,84.62
2023-03-06T06:13:56.749Z,84.46
2023-03-06T06:14:58.069Z,84.82
2023-03-06T06:15:59.326Z,84.30
2023-03-06T06:17:00.640Z,84.26
2023-03-06T06:18:01.877Z,84.14
2023-03-06T06:19:03.238Z,84.29
2023-03-06T06:20:04.659Z,84.39
2023-03-06T06:21:06.609Z,84.15
2023-03-06T06:22:07.851Z,84.14
2023-03-06T06:23:10.597Z,83.77
2023-03-06T06:24:12.050Z,83.84
2023-03-06T06:25:13.684Z,83.80
2023-03-06T06:26:14.958Z,83.81
2023-03-06T06:27:16.214Z,83.65
2023-03-06T06:28:17.452Z,83.86
2023-03-06T06:29:18.800Z,84.05
2023-03-06T06:30:20.265Z,84.04
2023-03-06T06:31:21.523Z,83.80
2023-03-06T06:32:22.855Z,83.90
2023-03-06T06:33:24.109Z,84.17
2023-03-06T06:34:25.931Z,83.87
2023-03-06T06:35:27.180Z,83.68
2023-03-06T06:36:28.565Z,83.97
2023-03-06T06:37:30.171Z,83.61
2023-03-06T06:38:31.683Z,83.50
2023-03-06T06:39:32.962Z,83.50
2023-03-06T06:40:34.668Z,83.38
2023-03-06T06:41:53.666Z,83.53
2023-03-06T06:42:57.271Z,83.08
2023-03-06T06:43:59.119Z,83.18
2023-03-06T06:45:00.492Z,83.08
2023-03-06T06:46:24.208Z,82.92
2023-03-06T06:47:25.056Z,82.43
2023-03-06T06:48:26.916Z,82.62
2023-03-06T06:49:28.225Z,82.51
2023-03-06T06:50:29.636Z,82.01
2023-03-06T06:51:31.276Z,82.34
2023-03-06T06:52:32.553Z,82.33
2023-03-06T06:53:33.749Z,82.17
2023-03-06T06:54:35.016Z,82.14
2023-03-06T06:55:36.835Z,81.90
2023-03-06T06:56:38.317Z,82.04
2023-03-06T06:57:40.173Z,82.23
2023-03-06T06:58:41.396Z,82.22
2023-03-06T06:59:42.643Z,82.28
2023-03-06T07:00:43.977Z,81.90
2023-03-06T07:01:45.279Z,82.20
2023-03-06T07:02:46.596Z,82.17
2023-03-06T07:03:47.964Z,82.01
2023-03-06T07:05:03.054Z,81.44
2023-03-06T07:06:05.945Z,82.09
2023-03-06T07:07:07.169Z,81.70
2023-03-06T07:08:08.848Z,81.62
2023-03-06T07:09:10.638Z,81.98
2023-03-06T07:10:14.067Z,81.81
2023-03-06T07:11:16.706Z,81.47
2023-03-06T07:12:17.919Z,81.61
2023-03-06T07:13:19.370Z,81.48
2023-03-06T07:14:20.606Z,81.45
2023-03-06T07:15:21.969Z,80.59
2023-03-06T07:16:23.305Z,81.05
2023-03-06T07:17:24.652Z,81.15
2023-03-06T07:18:25.887Z,81.44
2023-03-06T07:19:27.082Z,81.04
2023-03-06T07:20:28.422Z,81.42
2023-03-06T07:21:29.772Z,80.74
2023-03-06T07:22:41.424Z,81.18
2023-03-06T07:23:49.959Z,80.94
2023-03-06T07:24:51.175Z,81.25
2023-03-06T07:25:53.164Z,80.66
2023-03-06T07:26:54.463Z,80.54
2023-03-06T07:27:55.682Z,80.13
2023-03-06T07:28:56.896Z,79.97
2023-03-06T07:29:58.182Z,79.68
2023-03-06T07:30:59.642Z,79.83
2023-03-06T07:32:00.958Z,79.36
2023-03-06T07:33:02.290Z,79.11
2023-03-06T07:34:04.995Z,78.98
2023-03-06T07:35:19.805Z,78.65
2023-03-06T07:36:22.869Z,78.63
2023-03-06T07:37:24.089Z,78.51
2023-03-06T07:38:25.402Z,78.25
2023-03-06T07:39:26.657Z,78.24
2023-03-06T07:40:27.998Z,78.75
2023-03-06T07:41:29.304Z,78.24
2023-03-06T07:42:30.666Z,77.74
2023-03-06T07:43:35.768Z,78.04
2023-03-06T07:44:40.786Z,77.50
2023-03-06T07:45:42.052Z,78.08
2023-03-06T07:46:43.278Z,77.36
2023-03-06T07:47:45.182Z,77.44
2023-03-06T07:48:46.412Z,77.64
2023-03-06T07:49:47.672Z,77.13
2023-03-06T07:50:54.849Z,77.19
2023-03-06T07:51:56.355Z,77.23
2023-03-06T07:52:57.558Z,76.88
2023-03-06T07:53:58.802Z,76.71
2023-03-06T07:55:00.144Z,76.74
2023-03-06T07:56:03.188Z,77.25
2023-03-06T07:57:04.393Z,77.53
2023-03-06T07:58:05.586Z,77.53
2023-03-06T07:59:06.845Z,77.20
2023-03-06T08:00:09.987Z,77.51
2023-03-06T08:01:18.543Z,77.38
2023-03-06T08:02:19.773Z,77.53
2023-03-06T08:03:21.030Z,77.06
2023-03-06T08:04:22.325Z,77.69
2023-03-06T08:05:23.512Z,77.15
2023-03-06T08:06:25.534Z,77.20
2023-03-06T08:07:28.476Z,76.85
2023-03-06T08:08:29.701Z,76.90
2023-03-06T08:09:31.282Z,77.91
2023-03-06T08:10:32.745Z,77.38
2023-03-06T08:11:33.936Z,76.84
2023-03-06T08:12:35.223Z,76.01
2023-03-06T08:13:36.494Z,76.90
2023-03-06T08:14:37.718Z,76.62
2023-03-06T08:15:38.892Z,76.63
2023-03-06T08:16:40.215Z,76.31
2023-03-06T08:17:41.491Z,75.99
2023-03-06T08:18:45.065Z,76.88
2023-03-06T08:19:47.380Z,76.30
2023-03-06T08:20:48.601Z,76.68
2023-03-06T08:21:49.781Z,75.65
2023-03-06T08:22:51.088Z,75.78
2023-03-06T08:23:52.769Z,75.41
2023-03-06T08:24:54.993Z,76.12
2023-03-06T08:25:57.404Z,75.71
2023-03-06T08:26:58.619Z,76.28
2023-03-06T08:28:00.477Z,76.28
2023-03-06T08:29:02.162Z,76.33
2023-03-06T08:30:03.745Z,76.32
2023-03-06T08:31:23.632Z,76.47
2023-03-06T08:32:24.980Z,76.86
2023-03-06T08:33:26.224Z,77.43
2023-03-06T08:34:27.467Z,77.01
2023-03-06T08:35:28.771Z,77.29
2023-03-06T08:36:30.270Z,77.38
2023-03-06T08:37:31.563Z,77.56
2023-03-06T08:38:32.838Z,77.45
2023-03-06T08:39:34.043Z,77.19
2023-03-06T08:40:35.278Z,77.51
2023-03-06T08:41:36.974Z,77.30
2023-03-06T08:42:38.197Z,76.53
2023-03-06T08:43:39.415Z,77.25
2023-03-06T08:44:40.718Z,77.20
2023-03-06T08:45:42.018Z,77.03
2023-03-06T08:46:43.294Z,77.22
2023-03-06T08:47:44.606Z,77.78
2023-03-06T08:48:45.851Z,77.91
2023-03-06T08:49:47.393Z,77.41
2023-03-06T08:50:48.847Z,77.54
2023-03-06T08:51:50.092Z,77.69
2023-03-06T08:52:51.290Z,77.44
2023-03-06T08:53:52.581Z,78.44
2023-03-06T08:54:53.827Z,78.06
2023-03-06T08:55:55.109Z,77.87
2023-03-06T08:56:56.332Z,77.57
2023-03-06T08:57:57.524Z,77.03
2023-03-06T08:58:59.996Z,77.76
2023-03-06T09:00:01.288Z,77.50
2023-03-06T09:01:02.606Z,77.99
2023-03-06T09:02:03.925Z,77.43
2023-03-06T09:03:05.686Z,77.69
2023-03-06T09:04:08.586Z,77.69
2023-03-06T09:05:09.892Z,78.19
2023-03-06T09:06:11.583Z,77.50
2023-03-06T09:07:12.814Z,78.10
2023-03-06T09:08:14.068Z,78.29
2023-03-06T09:09:15.461Z,76.86
2023-03-06T09:10:18.579Z,77.80
2023-03-06T09:11:20.512Z,77.06
2023-03-06T09:12:21.743Z,77.52
2023-03-06T09:13:22.976Z,77.48
2023-03-06T09:14:24.246Z,77.87
2023-03-06T09:15:25.704Z,78.40
2023-03-06T09:16:27.041Z,77.78
2023-03-06T09:17:28.286Z,78.74
2023-03-06T09:18:29.586Z,78.39
2023-03-06T09:19:30.840Z,77.65
2023-03-06T09:20:32.427Z,77.98
2023-03-06T09:21:33.650Z,78.94
2023-03-06T09:22:35.421Z,78.08
2023-03-06T09:23:37.557Z,78.70
2023-03-06T09:24:38.890Z,78.30
2023-03-06T09:25:40.145Z,77.83
2023-03-06T09:26:46.223Z,78.61
2023-03-06T09:27:55.458Z,78.62
2023-03-06T09:29:03.285Z,78.83
2023-03-06T09:30:05.896Z,78.61
2023-03-06T09:31:08.255Z,78.40
2023-03-06T09:32:11.807Z,78.15
2023-03-06T09:33:13.350Z,77.86
2023-03-06T09:34:14.653Z,77.13
2023-03-06T09:35:15.872Z,77.57
2023-03-06T09:36:18.429Z,77.63
2023-03-06T09:37:19.689Z,78.27
2023-03-06T09:38:22.129Z,78.04
2023-03-06T09:39:23.623Z,78.26
2023-03-06T09:40:43.737Z,78.61
2023-03-06T09:41:46.556Z,78.24
2023-03-06T09:42:47.766Z,79.37
2023-03-06T09:43:50.362Z,79.72
2023-03-06T09:44:54.331Z,79.35
2023-03-06T09:45:56.354Z,79.73
2023-03-06T09:47:18.788Z,78.43
2023-03-06T09:48:22.303Z,78.85
2023-03-06T09:49:32.652Z,78.94
2023-03-06T09:50:50.966Z,78.36
2023-03-06T09:51:54.996Z,79.33
2023-03-06T09:53:15.063Z,80.03
2023-03-06T09:54:16.564Z,79.77
2023-03-06T09:55:19.218Z,79.63
2023-03-06T09:56:22.106Z,79.21
2023-03-06T09:57:26.502Z,79.70
2023-03-06T09:58:29.044Z,78.95
2023-03-06T09:59:31.402Z,79.48
2023-03-06T10:00:38.666Z,79.59
2023-03-06T10:01:41.904Z,79.88
2023-03-06T10:02:49.336Z,79.37
2023-03-06T10:03:54.011Z,77.98
2023-03-06T10:05:01.458Z,78.23
2023-03-06T10:06:09.277Z,78.93
2023-03-06T10:07:13.828Z,78.89
2023-03-06T10:08:44.325Z,78.92
2023-03-06T10:09:48.133Z,78.48
2023-03-06T10:11:00.014Z,78.27
2023-03-06T10:12:04.508Z,77.90
2023-03-06T10:13:11.539Z,78.01
2023-03-06T10:14:18.709Z,78.73
2023-03-06T10:15:23.921Z,78.85
2023-03-06T10:16:27.288Z,77.60
2023-03-06T10:17:33.874Z,77.84
2023-03-06T10:18:35.065Z,77.51
2023-03-06T10:19:37.243Z,78.40
2023-03-06T10:20:47.658Z,77.79
2023-03-06T10:22:09.890Z,77.31
2023-03-06T10:23:29.831Z,77.33
2023-03-06T10:24:50.427Z,77.90
2023-03-06T10:25:51.622Z,77.69
2023-03-06T10:26:59.139Z,77.48
2023-03-06T10:28:08.873Z,76.34
2023-03-06T10:29:13.105Z,75.62
2023-03-06T10:30:23.656Z,76.20
2023-03-06T10:31:26.146Z,74.88
2023-03-06T10:32:39.483Z,75.95
2023-03-06T10:33:52.530Z,74.72
2023-03-06T10:34:54.835Z,74.91
2023-03-06T10:35:56.494Z,75.43
2023-03-06T10:36:58.462Z,76.15
2023-03-06T10:38:12.860Z,74.53
2023-03-06T10:39:16.145Z,74.14
2023-03-06T10:40:20.139Z,74.66
2023-03-06T10:41:21.372Z,73.72
2023-03-06T10:42:23.591Z,73.51
2023-03-06T10:43:24.828Z,74.18
2023-03-06T10:44:26.040Z,73.99
2023-03-06T10:45:27.946Z,74.12
2023-03-06T10:46:31.527Z,73.19
2023-03-06T10:47:33.185Z,73.42
2023-03-06T10:48:35.143Z,72.93
2023-03-06T10:49:37.437Z,72.93
2023-03-06T10:50:38.717Z,72.24
2023-03-06T10:51:40.023Z,72.39
2023-03-06T10:52:41.304Z,72.24
2023-03-06T10:53:51.578Z,72.19
2023-03-06T10:55:04.805Z,72.18
2023-03-06T10:56:06.042Z,71.63
2023-03-06T10:57:26.004Z,71.46
2023-03-06T10:58:29.217Z,71.63
2023-03-06T10:59:30.421Z,70.41
2023-03-06T11:00:32.933Z,70.69
2023-03-06T11:01:34.776Z,69.97
2023-03-06T11:02:37.388Z,69.99
2023-03-06T11:03:38.577Z,70.13
2023-03-06T11:04:41.035Z,68.52
2023-03-06T11:06:00.854Z,69.38
2023-03-06T11:07:04.860Z,68.51
2023-03-06T11:08:19.556Z,67.72
2023-03-06T11:09:24.811Z,68.19
2023-03-06T11:10:26.845Z,68.57
2023-03-06T11:11:37.116Z,66.84
2023-03-06T11:12:40.071Z,65.76
2023-03-06T11:13:42.592Z,66.56
2023-03-06T11:14:43.887Z,66.51
2023-03-06T11:16:02.379Z,67.25
2023-03-06T11:17:03.666Z,65.40
2023-03-06T11:18:23.991Z,65.63
2023-03-06T11:19:27.036Z,64.45
2023-03-06T11:20:48.591Z,64.95
2023-03-06T11:22:00.932Z,64.74
2023-03-06T11:23:02.175Z,66.04
2023-03-06T11:24:11.564Z,65.76
2023-03-06T11:25:17.605Z,65.40
2023-03-06T11:26:24.416Z,64.90
2023-03-06T11:27:29.095Z,64.78
2023-03-06T11:28:33.306Z,64.52
2023-03-06T11:29:39.884Z,64.78
2023-03-06T11:30:43.805Z,64.57
2023-03-06T11:31:52.465Z,65.61
2023-03-06T11:32:57.314Z,65.03
2023-03-06T11:34:04.291Z,64.68
2023-03-06T11:35:09.839Z,64.20
2023-03-06T11:36:23.523Z,64.64
2023-03-06T11:37:28.995Z,64.56
2023-03-06T11:38:38.652Z,63.90
2023-03-06T11:39:56.482Z,64.24
2023-03-06T11:40:59.874Z,63.90
2023-03-06T11:42:05.194Z,65.23
2023-03-06T11:43:18.870Z,64.35
2023-03-06T11:44:25.542Z,64.27
2023-03-06T11:45:29.954Z,63.52
2023-03-06T11:46:36.513Z,63.48
2023-03-06T11:47:53.953Z,62.13
2023-03-06T11:49:05.110Z,62.57
2023-03-06T11:50:21.487Z,61.63
2023-03-06T11:51:31.257Z,61.74
2023-03-06T11:52:43.027Z,62.02
2023-03-06T11:53:44.319Z,61.47
2023-03-06T11:54:47.780Z,62.70
2023-03-06T11:56:14.197Z,62.06
2023-03-06T11:57:17.519Z,62.44
2023-03-06T11:58:36.589Z,62.45
2023-03-06T11:59:55.899Z,62.03
2023-03-06T12:01:00.133Z,61.86
2023-03-06T12:02:20.248Z,61.68
2023-03-06T12:03:21.432Z,62.39
2023-03-06T12:04:33.822Z,61.30
2023-03-06T12:05:38.223Z,61.75
2023-03-06T12:06:39.506Z,63.07
2023-03-06T12:07:56.700Z,62.87
2023-03-06T12:09:09.693Z,62.78
2023-03-06T12:10:18.668Z,63.11
2023-03-06T12:11:24.199Z,63.82
2023-03-06T12:12:25.400Z,63.51
2023-03-06T12:13:33.913Z,63.95
2023-03-06T12:14:42.479Z,63.53
2023-03-06T12:15:51.801Z,63.19
2023-03-06T12:17:13.440Z,63.11
2023-03-06T12:18:20.807Z,62.39
2023-03-06T12:19:27.725Z,63.22
2023-03-06T12:20:31.966Z,62.27
2023-03-06T12:21:51.408Z,62.93
2023-03-06T12:22:58.218Z,62.07
2023-03-06T12:24:08.159Z,62.17
2023-03-06T12:25:24.884Z,61.91
2023-03-06T12:26:29.076Z,62.40
2023-03-06T12:27:49.381Z,62.48
2023-03-06T12:29:06.018Z,61.80
2023-03-06T12:30:13.235Z,62.40
2023-03-06T12:31:20.870Z,61.01
2023-03-06T12:32:27.910Z,60.22
2023-03-06T12:33:45.433Z,60.94
2023-03-06T12:34:58.648Z,60.78
2023-03-06T12:36:22.648Z,60.96
2023-03-06T12:37:47.023Z,60.66
2023-03-06T12:38:59.093Z,59.69
2023-03-06T12:40:13.053Z,60.65
2023-03-06T12:41:40.681Z,60.16
2023-03-06T12:42:44.750Z,60.19
2023-03-06T12:43:55.711Z,60.27
2023-03-06T12:45:03.199Z,59.75
2023-03-06T12:46:13.482Z,60.21
2023-03-06T12:47:17.247Z,59.13
2023-03-06T12:48:20.784Z,60.31
2023-03-06T12:49:31.811Z,60.54
2023-03-06T12:50:35.272Z,60.49
2023-03-06T12:51:36.884Z,60.43
2023-03-06T12:52:41.357Z,60.10
2023-03-06T12:53:43.276Z,60.28
2023-03-06T12:54:45.012Z,60.00
2023-03-06T12:55:47.804Z,59.92
2023-03-06T12:56:50.391Z,59.68
2023-03-06T12:57:51.860Z,58.91
2023-03-06T12:58:54.069Z,59.73
2023-03-06T12:59:55.348Z,59.76
2023-03-06T13:01:04.852Z,59.13
2023-03-06T13:02:22.523Z,59.12
2023-03-06T13:03:49.815Z,58.54
2023-03-06T13:05:11.331Z,58.85
2023-03-06T13:06:12.548Z,59.13
2023-03-06T13:07:28.863Z,59.11
2023-03-06T13:08:30.177Z,59.21
2023-03-06T13:09:50.090Z,58.84
2023-03-06T13:11:12.697Z,59.08
2023-03-06T13:12:19.872Z,59.17
2023-03-06T13:13:41.186Z,58.79
2023-03-06T13:14:53.788Z,59.69
2023-03-06T13:16:04.721Z,57.57
2023-03-06T13:17:24.020Z,58.77
2023-03-06T13:18:25.238Z,58.41
2023-03-06T13:19:26.619Z,58.50
2023-03-06T13:20:34.645Z,58.41
2023-03-06T13:21:42.057Z,58.76
2023-03-06T13:22:44.151Z,58.33
2023-03-06T13:23:49.828Z,58.19
2023-03-06T13:25:11.028Z,58.24
2023-03-06T13:26:35.114Z,57.74
2023-03-06T13:27:54.385Z,57.85
2023-03-06T13:28:56.392Z,57.65
2023-03-06T13:30:04.433Z,57.77
2023-03-06T13:31:07.332Z,58.00
2023-03-06T13:32:13.240Z,57.15
2023-03-06T13:33:29.464Z,58.26
2023-03-06T13:34:36.495Z,57.77
2023-03-06T13:35:40.610Z,58.11
2023-03-06T13:36:41.837Z,58.84
2023-03-06T13:37:48.250Z,58.82
2023-03-06T13:38:49.489Z,57.68
2023-03-06T13:39:53.370Z,58.11
2023-03-06T13:41:14.524Z,57.87
2023-03-06T13:42:25.347Z,58.12